sensor_id;sensor_type;location;lat;lon;timestamp;pressure;altitude;pressure_sealevel;temperature;humidity
550;BME280;20066;48.764;9.176;2023-04-09T00:01:44;98864.16;;;11.58;55.62
550;BME280;20066;48.764;9.176;2023-04-09T00:04:13;98866.72;;;11.88;54.56
550;BME280;20066;48.764;9.176;2023-04-09T00:06:41;98870.22;;;11.95;54.37
550;BME280;20066;48.764;9.176;2023-04-09T00:09:09;98876.19;;;11.68;55.09
550;BME280;20066;48.764;9.176;2023-04-09T00:11:36;98860.53;;;11.43;54.58
550;BME280;20066;48.764;9.176;2023-04-09T00:14:04;98873.28;;;11.43;54.67
550;BME280;20066;48.764;9.176;2023-04-09T00:16:32;98861.97;;;11.74;53.91
550;BME280;20066;48.764;9.176;2023-04-09T00:19:00;98862.81;;;11.34;54.84
550;BME280;20066;48.764;9.176;2023-04-09T00:21:29;98866.03;;;11.54;55.02
550;BME280;20066;48.764;9.176;2023-04-09T00:23:57;98866.31;;;11.42;54.51
550;BME280;20066;48.764;9.176;2023-04-09T00:26:25;98867.44;;;11.37;54.99
550;BME280;20066;48.764;9.176;2023-04-09T00:28:53;98861.19;;;11.26;55.72
550;BME280;20066;48.764;9.176;2023-04-09T00:31:21;98864.97;;;10.84;57.14
550;BME280;20066;48.764;9.176;2023-04-09T00:33:48;98868.81;;;11.20;55.90
550;BME280;20066;48.764;9.176;2023-04-09T00:36:16;98863.47;;;11.28;55.91
550;BME280;20066;48.764;9.176;2023-04-09T00:38:45;98863.16;;;11.33;55.29
550;BME280;20066;48.764;9.176;2023-04-09T00:41:14;98864.25;;;11.25;55.74
550;BME280;20066;48.764;9.176;2023-04-09T00:43:41;98859.47;;;11.51;55.35
550;BME280;20066;48.764;9.176;2023-04-09T00:46:09;98862.84;;;11.85;54.00
550;BME280;20066;48.764;9.176;2023-04-09T00:48:37;98852.03;;;11.34;56.28
550;BME280;20066;48.764;9.176;2023-04-09T00:51:06;98855.16;;;11.40;56.21
550;BME280;20066;48.764;9.176;2023-04-09T00:53:34;98859.94;;;11.60;55.44
550;BME280;20066;48.764;9.176;2023-04-09T00:56:04;98856.25;;;10.61;58.74
550;BME280;20066;48.764;9.176;2023-04-09T00:58:33;98857.72;;;11.29;55.77
550;BME280;20066;48.764;9.176;2023-04-09T01:01:01;98857.22;;;11.60;55.66
550;BME280;20066;48.764;9.176;2023-04-09T01:03:29;98860.63;;;10.73;59.13
550;BME280;20066;48.764;9.176;2023-04-09T01:06:05;98860.00;;;11.23;57.51
550;BME280;20066;48.764;9.176;2023-04-09T01:08:43;98855.44;;;11.72;55.58
550;BME280;20066;48.764;9.176;2023-04-09T01:11:22;98856.97;;;11.73;55.00
550;BME280;20066;48.764;9.176;2023-04-09T01:14:00;98854.34;;;11.80;54.89
550;BME280;20066;48.764;9.176;2023-04-09T01:16:33;98855.66;;;12.07;54.06
550;BME280;20066;48.764;9.176;2023-04-09T01:19:09;98850.25;;;12.07;53.47
550;BME280;20066;48.764;9.176;2023-04-09T01:21:43;98846.97;;;11.73;55.46
550;BME280;20066;48.764;9.176;2023-04-09T01:24:18;98843.50;;;10.88;56.89
550;BME280;20066;48.764;9.176;2023-04-09T01:27:04;98852.56;;;11.50;55.57
550;BME280;20066;48.764;9.176;2023-04-09T01:29:37;98846.66;;;11.85;54.25
550;BME280;20066;48.764;9.176;2023-04-09T01:32:06;98851.38;;;11.99;54.24
550;BME280;20066;48.764;9.176;2023-04-09T01:34:35;98849.72;;;11.84;54.25
550;BME280;20066;48.764;9.176;2023-04-09T01:37:05;98856.69;;;11.85;54.12
550;BME280;20066;48.764;9.176;2023-04-09T01:39:36;98851.41;;;11.55;55.16
550;BME280;20066;48.764;9.176;2023-04-09T01:42:04;98852.59;;;11.57;54.84
550;BME280;20066;48.764;9.176;2023-04-09T01:44:38;98861.19;;;11.30;56.61
550;BME280;20066;48.764;9.176;2023-04-09T01:47:07;98859.22;;;11.19;56.37
550;BME280;20066;48.764;9.176;2023-04-09T01:49:36;98860.28;;;11.55;54.75
550;BME280;20066;48.764;9.176;2023-04-09T01:52:05;98852.56;;;11.50;55.16
550;BME280;20066;48.764;9.176;2023-04-09T01:54:33;98855.75;;;11.19;56.24
550;BME280;20066;48.764;9.176;2023-04-09T01:57:01;98852.34;;;11.29;56.25
550;BME280;20066;48.764;9.176;2023-04-09T01:59:29;98852.69;;;11.65;54.81
550;BME280;20066;48.764;9.176;2023-04-09T02:02:00;98851.13;;;11.64;54.74
550;BME280;20066;48.764;9.176;2023-04-09T02:04:33;98850.91;;;11.86;54.52
550;BME280;20066;48.764;9.176;2023-04-09T02:07:05;98855.53;;;11.86;53.57
550;BME280;20066;48.764;9.176;2023-04-09T02:09:38;98845.06;;;11.77;54.79
550;BME280;20066;48.764;9.176;2023-04-09T02:12:10;98852.69;;;11.68;55.06
550;BME280;20066;48.764;9.176;2023-04-09T02:14:39;98853.59;;;11.86;53.97
550;BME280;20066;48.764;9.176;2023-04-09T02:17:08;98848.66;;;11.95;53.70
550;BME280;20066;48.764;9.176;2023-04-09T02:19:40;98852.63;;;11.61;55.01
550;BME280;20066;48.764;9.176;2023-04-09T02:22:08;98846.63;;;11.78;54.35
550;BME280;20066;48.764;9.176;2023-04-09T02:24:36;98845.66;;;11.56;54.84
550;BME280;20066;48.764;9.176;2023-04-09T02:27:04;98846.63;;;11.82;54.77
550;BME280;20066;48.764;9.176;2023-04-09T02:29:32;98838.84;;;11.70;55.08
550;BME280;20066;48.764;9.176;2023-04-09T02:32:00;98842.00;;;11.82;54.08
550;BME280;20066;48.764;9.176;2023-04-09T02:34:29;98842.59;;;11.58;54.67
550;BME280;20066;48.764;9.176;2023-04-09T02:36:56;98843.34;;;11.55;55.47
550;BME280;20066;48.764;9.176;2023-04-09T02:39:24;98833.81;;;11.65;55.51
550;BME280;20066;48.764;9.176;2023-04-09T02:41:52;98839.59;;;11.67;54.94
550;BME280;20066;48.764;9.176;2023-04-09T02:44:20;98843.06;;;11.64;55.16
550;BME280;20066;48.764;9.176;2023-04-09T02:46:49;98842.97;;;11.60;54.43
550;BME280;20066;48.764;9.176;2023-04-09T02:49:17;98851.00;;;11.49;55.41
550;BME280;20066;48.764;9.176;2023-04-09T02:51:46;98849.16;;;11.60;54.68
550;BME280;20066;48.764;9.176;2023-04-09T02:54:14;98843.88;;;11.27;56.39
550;BME280;20066;48.764;9.176;2023-04-09T02:56:42;98839.25;;;11.28;55.98
550;BME280;20066;48.764;9.176;2023-04-09T02:59:10;98850.00;;;11.24;56.61
550;BME280;20066;48.764;9.176;2023-04-09T03:01:37;98846.72;;;11.45;55.63
550;BME280;20066;48.764;9.176;2023-04-09T03:04:05;98846.38;;;11.50;55.21
550;BME280;20066;48.764;9.176;2023-04-09T03:06:33;98838.50;;;11.31;55.23
550;BME280;20066;48.764;9.176;2023-04-09T03:09:02;98837.31;;;11.25;55.79
550;BME280;20066;48.764;9.176;2023-04-09T03:11:30;98840.13;;;11.35;55.95
550;BME280;20066;48.764;9.176;2023-04-09T03:13:58;98840.53;;;11.41;55.79
550;BME280;20066;48.764;9.176;2023-04-09T03:16:26;98839.34;;;11.35;56.21
550;BME280;20066;48.764;9.176;2023-04-09T03:18:54;98835.16;;;11.44;55.67
550;BME280;20066;48.764;9.176;2023-04-09T03:21:21;98828.88;;;11.30;56.07
550;BME280;20066;48.764;9.176;2023-04-09T03:23:49;98833.25;;;11.45;55.43
550;BME280;20066;48.764;9.176;2023-04-09T03:26:18;98831.63;;;11.33;56.27
550;BME280;20066;48.764;9.176;2023-04-09T03:28:46;98827.50;;;11.06;56.55
550;BME280;20066;48.764;9.176;2023-04-09T03:31:14;98828.94;;;11.33;55.73
550;BME280;20066;48.764;9.176;2023-04-09T03:33:42;98824.66;;;11.29;55.90
550;BME280;20066;48.764;9.176;2023-04-09T03:36:10;98826.59;;;11.32;55.40
550;BME280;20066;48.764;9.176;2023-04-09T03:38:37;98831.16;;;11.24;56.63
550;BME280;20066;48.764;9.176;2023-04-09T03:41:05;98830.44;;;11.27;55.72
550;BME280;20066;48.764;9.176;2023-04-09T03:43:34;98837.91;;;11.04;56.38
550;BME280;20066;48.764;9.176;2023-04-09T03:46:10;98837.41;;;10.95;57.08
550;BME280;20066;48.764;9.176;2023-04-09T03:48:38;98831.03;;;11.10;57.14
550;BME280;20066;48.764;9.176;2023-04-09T03:51:21;98827.16;;;11.07;56.53
550;BME280;20066;48.764;9.176;2023-04-09T03:53:49;98837.38;;;10.91;57.21
550;BME280;20066;48.764;9.176;2023-04-09T03:56:17;98830.97;;;11.06;56.82
550;BME280;20066;48.764;9.176;2023-04-09T03:58:46;98822.59;;;11.15;56.14
550;BME280;20066;48.764;9.176;2023-04-09T04:01:15;98823.78;;;11.17;56.77
550;BME280;20066;48.764;9.176;2023-04-09T04:03:42;98826.91;;;11.23;55.92
550;BME280;20066;48.764;9.176;2023-04-09T04:06:11;98826.81;;;11.12;56.55
550;BME280;20066;48.764;9.176;2023-04-09T04:08:38;98826.06;;;11.15;56.22
550;BME280;20066;48.764;9.176;2023-04-09T04:11:06;98828.81;;;11.22;56.20
550;BME280;20066;48.764;9.176;2023-04-09T04:13:34;98838.34;;;11.09;56.22
550;BME280;20066;48.764;9.176;2023-04-09T04:16:06;98833.78;;;11.17;55.89
550;BME280;20066;48.764;9.176;2023-04-09T04:18:33;98834.88;;;11.12;56.18
550;BME280;20066;48.764;9.176;2023-04-09T04:21:01;98831.81;;;11.14;55.74
550;BME280;20066;48.764;9.176;2023-04-09T04:23:29;98830.72;;;11.18;55.64
550;BME280;20066;48.764;9.176;2023-04-09T04:25:57;98841.50;;;11.18;55.35
550;BME280;20066;48.764;9.176;2023-04-09T04:28:24;98841.75;;;11.06;56.73
550;BME280;20066;48.764;9.176;2023-04-09T04:30:52;98844.03;;;11.04;56.12
550;BME280;20066;48.764;9.176;2023-04-09T04:33:21;98846.19;;;10.88;57.19
550;BME280;20066;48.764;9.176;2023-04-09T04:35:49;98846.34;;;11.02;56.31
550;BME280;20066;48.764;9.176;2023-04-09T04:38:17;98846.41;;;11.09;56.23
550;BME280;20066;48.764;9.176;2023-04-09T04:40:45;98847.97;;;11.14;56.31
550;BME280;20066;48.764;9.176;2023-04-09T04:43:12;98841.09;;;11.20;56.02
550;BME280;20066;48.764;9.176;2023-04-09T04:45:40;98848.44;;;11.19;55.71
550;BME280;20066;48.764;9.176;2023-04-09T04:48:08;98847.25;;;11.20;56.19
550;BME280;20066;48.764;9.176;2023-04-09T04:50:37;98851.97;;;11.27;55.19
550;BME280;20066;48.764;9.176;2023-04-09T04:53:05;98844.22;;;11.22;56.09
550;BME280;20066;48.764;9.176;2023-04-09T04:55:34;98850.59;;;11.07;55.65
550;BME280;20066;48.764;9.176;2023-04-09T04:58:02;98851.03;;;10.72;58.66
550;BME280;20066;48.764;9.176;2023-04-09T05:00:30;98847.00;;;10.92;56.69
550;BME280;20066;48.764;9.176;2023-04-09T05:02:58;98846.44;;;11.13;56.41
550;BME280;20066;48.764;9.176;2023-04-09T05:05:26;98850.66;;;11.14;56.20
550;BME280;20066;48.764;9.176;2023-04-09T05:07:55;98852.81;;;10.98;56.38
550;BME280;20066;48.764;9.176;2023-04-09T05:10:22;98859.19;;;10.82;58.00
550;BME280;20066;48.764;9.176;2023-04-09T05:12:50;98849.50;;;10.74;57.89
550;BME280;20066;48.764;9.176;2023-04-09T05:15:18;98856.97;;;10.92;56.97
550;BME280;20066;48.764;9.176;2023-04-09T05:17:46;98855.28;;;10.76;57.75
550;BME280;20066;48.764;9.176;2023-04-09T05:20:13;98849.75;;;10.62;58.19
550;BME280;20066;48.764;9.176;2023-04-09T05:22:41;98848.97;;;10.62;58.72
550;BME280;20066;48.764;9.176;2023-04-09T05:25:10;98850.41;;;10.86;57.60
550;BME280;20066;48.764;9.176;2023-04-09T05:27:41;98844.16;;;10.78;58.49
550;BME280;20066;48.764;9.176;2023-04-09T05:30:09;98849.34;;;10.97;57.23
550;BME280;20066;48.764;9.176;2023-04-09T05:32:37;98854.28;;;10.88;57.77
550;BME280;20066;48.764;9.176;2023-04-09T05:35:05;98862.91;;;11.08;56.94
550;BME280;20066;48.764;9.176;2023-04-09T05:37:32;98864.13;;;11.10;57.09
550;BME280;20066;48.764;9.176;2023-04-09T05:40:00;98859.28;;;10.56;59.31
550;BME280;20066;48.764;9.176;2023-04-09T05:42:30;98865.06;;;10.92;58.33
550;BME280;20066;48.764;9.176;2023-04-09T05:44:57;98864.25;;;11.25;57.04
550;BME280;20066;48.764;9.176;2023-04-09T05:47:25;98860.13;;;11.38;56.34
550;BME280;20066;48.764;9.176;2023-04-09T05:49:54;98861.72;;;11.42;56.28
550;BME280;20066;48.764;9.176;2023-04-09T05:52:22;98869.81;;;11.46;55.91
550;BME280;20066;48.764;9.176;2023-04-09T05:54:49;98863.25;;;11.43;56.35
550;BME280;20066;48.764;9.176;2023-04-09T05:57:18;98858.53;;;11.74;55.49
550;BME280;20066;48.764;9.176;2023-04-09T05:59:47;98866.28;;;11.82;55.75
550;BME280;20066;48.764;9.176;2023-04-09T06:02:15;98861.28;;;11.84;55.19
550;BME280;20066;48.764;9.176;2023-04-09T06:04:43;98864.31;;;11.76;56.04
550;BME280;20066;48.764;9.176;2023-04-09T06:07:11;98869.03;;;11.45;56.86
550;BME280;20066;48.764;9.176;2023-04-09T06:09:38;98874.78;;;11.40;57.32
550;BME280;20066;48.764;9.176;2023-04-09T06:12:06;98865.69;;;11.59;57.17
550;BME280;20066;48.764;9.176;2023-04-09T06:14:34;98871.19;;;11.70;56.20
550;BME280;20066;48.764;9.176;2023-04-09T06:17:03;98870.78;;;11.64;57.16
550;BME280;20066;48.764;9.176;2023-04-09T06:19:31;98864.84;;;11.48;57.80
550;BME280;20066;48.764;9.176;2023-04-09T06:21:58;98866.81;;;11.10;59.13
550;BME280;20066;48.764;9.176;2023-04-09T06:24:26;98861.97;;;11.74;56.91
550;BME280;20066;48.764;9.176;2023-04-09T06:26:54;98858.13;;;11.75;55.47
550;BME280;20066;48.764;9.176;2023-04-09T06:29:22;98857.94;;;11.10;58.76
550;BME280;20066;48.764;9.176;2023-04-09T06:31:50;98858.22;;;11.38;57.50
550;BME280;20066;48.764;9.176;2023-04-09T06:34:19;98864.25;;;11.69;56.23
550;BME280;20066;48.764;9.176;2023-04-09T06:36:47;98860.78;;;11.65;57.08
550;BME280;20066;48.764;9.176;2023-04-09T06:39:14;98863.97;;;11.37;58.39
550;BME280;20066;48.764;9.176;2023-04-09T06:41:42;98871.28;;;10.96;59.88
550;BME280;20066;48.764;9.176;2023-04-09T06:44:10;98870.50;;;10.99;58.34
550;BME280;20066;48.764;9.176;2023-04-09T06:46:38;98877.34;;;11.30;58.26
550;BME280;20066;48.764;9.176;2023-04-09T06:49:06;98870.22;;;11.48;56.88
550;BME280;20066;48.764;9.176;2023-04-09T06:51:35;98874.72;;;11.77;57.02
550;BME280;20066;48.764;9.176;2023-04-09T06:54:03;98871.38;;;11.98;55.63
550;BME280;20066;48.764;9.176;2023-04-09T06:56:30;98872.63;;;10.79;59.53
550;BME280;20066;48.764;9.176;2023-04-09T06:58:58;98874.16;;;10.47;58.46
550;BME280;20066;48.764;9.176;2023-04-09T07:01:26;98871.75;;;10.71;58.18
550;BME280;20066;48.764;9.176;2023-04-09T07:03:54;98879.38;;;11.40;55.74
550;BME280;20066;48.764;9.176;2023-04-09T07:06:22;98877.38;;;10.29;57.97
550;BME280;20066;48.764;9.176;2023-04-09T07:08:52;98875.34;;;10.23;58.91
550;BME280;20066;48.764;9.176;2023-04-09T07:11:20;98881.19;;;11.25;55.70
550;BME280;20066;48.764;9.176;2023-04-09T07:13:48;98873.69;;;11.48;55.07
550;BME280;20066;48.764;9.176;2023-04-09T07:16:16;98875.31;;;11.56;54.89
550;BME280;20066;48.764;9.176;2023-04-09T07:18:43;98880.84;;;10.93;56.59
550;BME280;20066;48.764;9.176;2023-04-09T07:21:12;98876.44;;;10.18;57.30
550;BME280;20066;48.764;9.176;2023-04-09T07:23:40;98883.34;;;11.12;55.16
550;BME280;20066;48.764;9.176;2023-04-09T07:26:09;98879.63;;;11.24;53.74
550;BME280;20066;48.764;9.176;2023-04-09T07:28:37;98871.41;;;11.10;54.11
550;BME280;20066;48.764;9.176;2023-04-09T07:31:05;98879.38;;;10.99;52.81
550;BME280;20066;48.764;9.176;2023-04-09T07:33:33;98883.16;;;10.61;51.76
550;BME280;20066;48.764;9.176;2023-04-09T07:36:01;98873.50;;;10.57;52.40
550;BME280;20066;48.764;9.176;2023-04-09T07:38:29;98877.59;;;11.54;51.34
550;BME280;20066;48.764;9.176;2023-04-09T07:40:57;98875.94;;;11.87;49.71
550;BME280;20066;48.764;9.176;2023-04-09T07:43:26;98876.56;;;14.24;43.10
550;BME280;20066;48.764;9.176;2023-04-09T07:45:54;98890.94;;;15.12;42.36
550;BME280;20066;48.764;9.176;2023-04-09T07:48:21;98890.84;;;17.94;36.71
550;BME280;20066;48.764;9.176;2023-04-09T07:50:49;98889.53;;;21.30;30.74
550;BME280;20066;48.764;9.176;2023-04-09T07:53:17;98896.03;;;19.11;31.98
550;BME280;20066;48.764;9.176;2023-04-09T07:55:45;98899.19;;;15.50;38.40
550;BME280;20066;48.764;9.176;2023-04-09T07:58:12;98897.00;;;14.43;40.72
550;BME280;20066;48.764;9.176;2023-04-09T08:00:42;98897.44;;;14.24;41.22
550;BME280;20066;48.764;9.176;2023-04-09T08:03:10;98898.13;;;14.60;40.96
550;BME280;20066;48.764;9.176;2023-04-09T08:05:39;98902.47;;;15.27;40.49
550;BME280;20066;48.764;9.176;2023-04-09T08:08:07;98893.16;;;17.72;36.24
550;BME280;20066;48.764;9.176;2023-04-09T08:10:35;98889.84;;;16.43;38.77
550;BME280;20066;48.764;9.176;2023-04-09T08:13:03;98894.75;;;16.22;40.16
550;BME280;20066;48.764;9.176;2023-04-09T08:15:31;98892.16;;;16.04;41.91
550;BME280;20066;48.764;9.176;2023-04-09T08:18:00;98900.47;;;18.02;37.41
550;BME280;20066;48.764;9.176;2023-04-09T08:20:29;98899.06;;;21.38;32.17
550;BME280;20066;48.764;9.176;2023-04-09T08:22:58;98894.66;;;21.66;31.01
550;BME280;20066;48.764;9.176;2023-04-09T08:25:26;98894.94;;;20.80;32.02
550;BME280;20066;48.764;9.176;2023-04-09T08:27:54;98903.94;;;19.05;32.12
550;BME280;20066;48.764;9.176;2023-04-09T08:30:22;98897.75;;;19.21;31.97
550;BME280;20066;48.764;9.176;2023-04-09T08:32:50;98905.84;;;15.45;35.80
550;BME280;20066;48.764;9.176;2023-04-09T08:35:20;98903.09;;;15.97;36.29
550;BME280;20066;48.764;9.176;2023-04-09T08:37:48;98906.19;;;17.61;34.97
550;BME280;20066;48.764;9.176;2023-04-09T08:40:17;98909.41;;;14.37;38.44
550;BME280;20066;48.764;9.176;2023-04-09T08:42:45;98913.88;;;16.79;34.25
550;BME280;20066;48.764;9.176;2023-04-09T08:45:16;98911.44;;;17.95;34.41
550;BME280;20066;48.764;9.176;2023-04-09T08:47:47;98904.06;;;19.86;30.20
550;BME280;20066;48.764;9.176;2023-04-09T08:50:16;98910.19;;;20.35;30.29
550;BME280;20066;48.764;9.176;2023-04-09T08:52:46;98914.81;;;19.93;29.35
550;BME280;20066;48.764;9.176;2023-04-09T08:55:14;98910.13;;;20.68;29.82
550;BME280;20066;48.764;9.176;2023-04-09T08:57:42;98911.72;;;21.07;28.79
550;BME280;20066;48.764;9.176;2023-04-09T09:00:11;98909.31;;;14.62;38.09
550;BME280;20066;48.764;9.176;2023-04-09T09:03:02;98911.16;;;15.56;36.86
550;BME280;20066;48.764;9.176;2023-04-09T09:05:38;98911.34;;;19.41;30.38
550;BME280;20066;48.764;9.176;2023-04-09T09:08:23;98927.25;;;18.27;32.77
550;BME280;20066;48.764;9.176;2023-04-09T09:10:51;98922.63;;;16.26;35.91
550;BME280;20066;48.764;9.176;2023-04-09T09:13:21;98920.28;;;16.28;36.31
550;BME280;20066;48.764;9.176;2023-04-09T09:15:50;98924.47;;;13.92;40.58
550;BME280;20066;48.764;9.176;2023-04-09T09:18:21;98923.31;;;14.43;39.58
550;BME280;20066;48.764;9.176;2023-04-09T09:21:09;98912.91;;;15.28;37.70
550;BME280;20066;48.764;9.176;2023-04-09T09:23:39;98918.66;;;17.32;34.51
550;BME280;20066;48.764;9.176;2023-04-09T09:26:12;98918.44;;;15.00;38.45
550;BME280;20066;48.764;9.176;2023-04-09T09:28:40;98919.75;;;19.14;32.30
550;BME280;20066;48.764;9.176;2023-04-09T09:31:09;98925.75;;;19.05;32.90
550;BME280;20066;48.764;9.176;2023-04-09T09:33:38;98928.28;;;20.46;29.63
550;BME280;20066;48.764;9.176;2023-04-09T09:36:06;98921.75;;;16.70;33.92
550;BME280;20066;48.764;9.176;2023-04-09T09:38:53;98929.19;;;15.84;36.89
550;BME280;20066;48.764;9.176;2023-04-09T09:41:22;98926.56;;;16.89;35.41
550;BME280;20066;48.764;9.176;2023-04-09T09:43:50;98927.53;;;15.38;37.31
550;BME280;20066;48.764;9.176;2023-04-09T09:46:18;98935.50;;;16.18;34.46
550;BME280;20066;48.764;9.176;2023-04-09T09:48:47;98936.88;;;14.18;38.04
550;BME280;20066;48.764;9.176;2023-04-09T09:51:17;98930.53;;;14.81;39.06
550;BME280;20066;48.764;9.176;2023-04-09T09:53:46;98935.84;;;18.02;32.13
550;BME280;20066;48.764;9.176;2023-04-09T09:56:21;98916.66;;;19.48;30.16
550;BME280;20066;48.764;9.176;2023-04-09T09:58:55;98927.84;;;21.43;27.29
550;BME280;20066;48.764;9.176;2023-04-09T10:01:27;98923.31;;;20.57;27.81
550;BME280;20066;48.764;9.176;2023-04-09T10:03:56;98920.09;;;16.45;33.51
550;BME280;20066;48.764;9.176;2023-04-09T10:06:27;98926.84;;;17.82;29.24
550;BME280;20066;48.764;9.176;2023-04-09T10:08:57;98932.59;;;18.11;29.55
550;BME280;20066;48.764;9.176;2023-04-09T10:11:28;98936.69;;;17.72;29.61
550;BME280;20066;48.764;9.176;2023-04-09T10:13:56;98923.63;;;16.39;31.28
550;BME280;20066;48.764;9.176;2023-04-09T10:16:26;98928.94;;;17.17;30.24
550;BME280;20066;48.764;9.176;2023-04-09T10:18:54;98919.78;;;14.53;34.92
550;BME280;20066;48.764;9.176;2023-04-09T10:21:31;98916.50;;;15.04;35.44
550;BME280;20066;48.764;9.176;2023-04-09T10:24:01;98917.25;;;17.20;32.00
550;BME280;20066;48.764;9.176;2023-04-09T10:26:33;98922.34;;;16.13;32.52
550;BME280;20066;48.764;9.176;2023-04-09T10:29:03;98926.53;;;17.77;30.74
550;BME280;20066;48.764;9.176;2023-04-09T10:31:45;98917.09;;;16.36;31.56
550;BME280;20066;48.764;9.176;2023-04-09T10:34:14;98916.88;;;15.06;31.89
550;BME280;20066;48.764;9.176;2023-04-09T10:36:43;98920.56;;;17.05;30.20
550;BME280;20066;48.764;9.176;2023-04-09T10:39:11;98916.75;;;16.99;29.36
550;BME280;20066;48.764;9.176;2023-04-09T10:41:42;98917.13;;;16.33;31.47
550;BME280;20066;48.764;9.176;2023-04-09T10:44:21;98918.66;;;15.89;32.20
550;BME280;20066;48.764;9.176;2023-04-09T10:46:52;98916.00;;;16.94;31.46
550;BME280;20066;48.764;9.176;2023-04-09T10:49:21;98918.41;;;17.23;30.64
550;BME280;20066;48.764;9.176;2023-04-09T10:51:52;98921.88;;;17.50;30.18
550;BME280;20066;48.764;9.176;2023-04-09T10:54:43;98902.38;;;16.34;31.56
550;BME280;20066;48.764;9.176;2023-04-09T10:57:15;98910.00;;;16.80;31.39
550;BME280;20066;48.764;9.176;2023-04-09T10:59:44;98911.63;;;17.85;29.91
550;BME280;20066;48.764;9.176;2023-04-09T11:05:25;98900.94;;;16.56;31.33
550;BME280;20066;48.764;9.176;2023-04-09T11:07:59;98898.59;;;16.58;31.14
550;BME280;20066;48.764;9.176;2023-04-09T11:10:30;98910.19;;;14.27;35.16
550;BME280;20066;48.764;9.176;2023-04-09T11:12:59;98899.00;;;13.36;36.73
550;BME280;20066;48.764;9.176;2023-04-09T11:15:28;98899.47;;;15.66;33.89
550;BME280;20066;48.764;9.176;2023-04-09T11:17:56;98901.47;;;14.89;35.09
550;BME280;20066;48.764;9.176;2023-04-09T11:20:25;98891.84;;;14.77;34.85
550;BME280;20066;48.764;9.176;2023-04-09T11:22:54;98900.59;;;15.10;34.56
550;BME280;20066;48.764;9.176;2023-04-09T11:25:23;98900.72;;;14.81;34.95
550;BME280;20066;48.764;9.176;2023-04-09T11:27:52;98893.94;;;14.34;35.77
550;BME280;20066;48.764;9.176;2023-04-09T11:30:21;98884.16;;;15.41;34.38
550;BME280;20066;48.764;9.176;2023-04-09T11:32:49;98889.56;;;15.41;34.33
550;BME280;20066;48.764;9.176;2023-04-09T11:35:19;98883.59;;;16.46;32.74
550;BME280;20066;48.764;9.176;2023-04-09T11:37:48;98887.84;;;17.65;31.14
550;BME280;20066;48.764;9.176;2023-04-09T11:40:19;98898.28;;;15.12;33.72
550;BME280;20066;48.764;9.176;2023-04-09T11:42:49;98887.69;;;15.35;34.10
550;BME280;20066;48.764;9.176;2023-04-09T11:45:17;98891.41;;;18.09;30.08
550;BME280;20066;48.764;9.176;2023-04-09T11:47:47;98882.34;;;17.69;30.17
550;BME280;20066;48.764;9.176;2023-04-09T11:50:16;98879.38;;;19.25;27.88
550;BME280;20066;48.764;9.176;2023-04-09T11:52:44;98879.41;;;18.06;29.18
550;BME280;20066;48.764;9.176;2023-04-09T11:55:27;98890.84;;;17.94;29.80
550;BME280;20066;48.764;9.176;2023-04-09T11:57:57;98887.28;;;15.88;31.72
550;BME280;20066;48.764;9.176;2023-04-09T12:00:27;98880.41;;;16.21;31.81
550;BME280;20066;48.764;9.176;2023-04-09T12:03:00;98876.22;;;16.47;31.82
550;BME280;20066;48.764;9.176;2023-04-09T12:05:30;98890.38;;;18.23;28.69
550;BME280;20066;48.764;9.176;2023-04-09T12:08:00;98883.19;;;18.72;28.10
550;BME280;20066;48.764;9.176;2023-04-09T12:10:29;98882.31;;;17.19;29.33
550;BME280;20066;48.764;9.176;2023-04-09T12:13:01;98888.13;;;17.94;28.91
550;BME280;20066;48.764;9.176;2023-04-09T12:15:31;98879.91;;;18.21;28.00
550;BME280;20066;48.764;9.176;2023-04-09T12:18:01;98885.34;;;17.75;29.05
550;BME280;20066;48.764;9.176;2023-04-09T12:20:32;98877.25;;;18.77;27.91
550;BME280;20066;48.764;9.176;2023-04-09T12:23:01;98886.69;;;18.72;27.61
550;BME280;20066;48.764;9.176;2023-04-09T12:25:30;98883.41;;;16.94;30.15
550;BME280;20066;48.764;9.176;2023-04-09T12:27:58;98878.91;;;17.88;28.95
550;BME280;20066;48.764;9.176;2023-04-09T12:30:41;98877.09;;;19.56;27.11
550;BME280;20066;48.764;9.176;2023-04-09T12:33:10;98873.44;;;17.42;29.99
550;BME280;20066;48.764;9.176;2023-04-09T12:35:38;98861.38;;;19.60;26.48
550;BME280;20066;48.764;9.176;2023-04-09T12:38:06;98874.53;;;21.22;25.04
550;BME280;20066;48.764;9.176;2023-04-09T12:40:34;98861.34;;;20.37;25.67
550;BME280;20066;48.764;9.176;2023-04-09T12:43:02;98866.19;;;17.82;28.50
550;BME280;20066;48.764;9.176;2023-04-09T12:45:30;98857.34;;;18.40;28.05
550;BME280;20066;48.764;9.176;2023-04-09T12:47:58;98863.94;;;20.57;25.83
550;BME280;20066;48.764;9.176;2023-04-09T12:50:27;98849.88;;;19.85;26.95
550;BME280;20066;48.764;9.176;2023-04-09T12:52:55;98839.22;;;16.26;30.98
550;BME280;20066;48.764;9.176;2023-04-09T12:55:23;98857.34;;;17.27;29.62
550;BME280;20066;48.764;9.176;2023-04-09T12:57:50;98852.28;;;17.53;29.80
550;BME280;20066;48.764;9.176;2023-04-09T13:00:18;98839.19;;;17.91;29.33
550;BME280;20066;48.764;9.176;2023-04-09T13:02:46;98835.97;;;18.19;28.84
550;BME280;20066;48.764;9.176;2023-04-09T13:05:14;98839.78;;;18.02;28.99
550;BME280;20066;48.764;9.176;2023-04-09T13:07:43;98838.06;;;17.88;28.98
550;BME280;20066;48.764;9.176;2023-04-09T13:10:11;98822.22;;;18.46;28.99
550;BME280;20066;48.764;9.176;2023-04-09T13:12:38;98827.84;;;18.75;28.58
550;BME280;20066;48.764;9.176;2023-04-09T13:15:06;98835.34;;;18.71;27.52
550;BME280;20066;48.764;9.176;2023-04-09T13:17:34;98826.97;;;18.42;27.43
550;BME280;20066;48.764;9.176;2023-04-09T13:20:02;98817.81;;;18.13;28.57
550;BME280;20066;48.764;9.176;2023-04-09T13:22:30;98824.88;;;18.30;28.20
550;BME280;20066;48.764;9.176;2023-04-09T13:25:00;98816.84;;;19.63;26.76
550;BME280;20066;48.764;9.176;2023-04-09T13:27:27;98819.78;;;19.23;27.09
550;BME280;20066;48.764;9.176;2023-04-09T13:29:55;98814.84;;;19.96;25.92
550;BME280;20066;48.764;9.176;2023-04-09T13:32:23;98805.50;;;19.48;26.51
550;BME280;20066;48.764;9.176;2023-04-09T13:34:51;98805.34;;;19.55;26.60
550;BME280;20066;48.764;9.176;2023-04-09T13:37:21;98803.06;;;19.99;26.18